UUDD/DME METAR and TAF weather

Enter ICAO airport designator
Station Type Date Time Source
UUDD METAR 2019/12/08 01:00 UTC NOAA

UUDD 080100Z 21005MPS 180V240 9999 BKN017 M01/M04 Q1000 R14R/290042 NOSIG


Station Type Date Time Source
UUDD Decoded METAR 2019/12/08 01:00 UTC NOAA

Moscow / Domodedovo, Russia (UUDD) 55-24N 037-54E
Dec 07, 2019 - 08:00 PM EST / 2019.12.08 0100 UTC
Wind: from the SSW (210 degrees) at 11 MPH (10 KT) (direction variable):0
Visibility: greater than 7 mile(s):0
Sky conditions: mostly cloudy
Temperature: 30 F (-1 C)
Windchill: 21 F (-6 C):1
Dew Point: 24 F (-4 C)
Relative Humidity: 80%
Pressure (altimeter): 29.53 in. Hg (1000 hPa)
ob: UUDD 080100Z 21005MPS 180V240 9999 BKN017 M01/M04 Q1000 R14R/290042 NOSIG
cycle: 1

Station Type Date Time Source
UUDD TAF 2019/12/07 21:21 UTC NOAA

TAF UUDD 071957Z 0721/0903 21008MPS 9999 BKN011 TX01/0810Z TNM02/0802Z
TEMPO 0800/0815 23008G14MPS 3100 -SHSN FEW006 BKN012CB
TEMPO 0900/0903 3100 -SN FEW005 OVC011

Example: see airport list